createdAt,value
2022-08-23T00:00:26.141Z,1015.184021
2022-08-23T00:01:24.991Z,1015.218628
2022-08-23T00:02:23.424Z,1015.195496
2022-08-23T00:03:21.702Z,1015.211243
2022-08-23T00:04:16.058Z,1015.168152
2022-08-23T00:06:15.709Z,1015.199768
2022-08-23T00:07:10.259Z,1015.218628
2022-08-23T00:08:17.709Z,1015.184021
2022-08-23T00:09:20.666Z,1015.159851
2022-08-23T00:11:15.435Z,1015.171265
2022-08-23T00:12:38.397Z,1015.112976
2022-08-23T00:13:19.273Z,1015.155518
2022-08-23T00:14:17.405Z,1015.125183
2022-08-23T00:14:45.394Z,1015.145203
2022-08-23T00:15:43.407Z,1015.149658
2022-08-23T00:16:43.522Z,1015.195862
2022-08-23T00:17:40.302Z,1015.145203
2022-08-23T00:18:49.314Z,1015.14093
2022-08-23T00:18:49.585Z,1015.14093
2022-08-23T00:19:43.651Z,1015.102295
2022-08-23T00:21:40.497Z,1015.10968
2022-08-23T00:22:36.006Z,1015.066711
2022-08-23T00:23:36.506Z,1015.105408
2022-08-23T00:24:31.798Z,1015.097961
2022-08-23T00:24:40.770Z,1015.097961
2022-08-23T00:26:31.600Z,1015.102295
2022-08-23T00:27:31.313Z,1015.17572
2022-08-23T00:28:32.513Z,1015.144165
2022-08-23T00:29:37.266Z,1015.058533
2022-08-23T00:31:36.366Z,1015.1474
2022-08-23T00:32:31.425Z,1015.13147
2022-08-23T00:33:33.499Z,1015.088501
2022-08-23T00:34:29.982Z,1015.099854
2022-08-23T00:36:30.111Z,1015.017334
2022-08-23T00:37:33.464Z,1015.083252
2022-08-23T00:38:32.936Z,1015.071289
2022-08-23T00:38:35.262Z,1015.071289
2022-08-23T00:39:36.265Z,1015.024475
2022-08-23T00:41:33.688Z,1014.973999
2022-08-23T00:42:37.367Z,1015.016113
2022-08-23T00:43:33.562Z,1014.969543
2022-08-23T00:44:34.088Z,1015.000488
2022-08-23T00:46:38.943Z,1015.007507
2022-08-23T00:47:36.264Z,1014.940613
2022-08-23T00:48:38.112Z,1015.006592
2022-08-23T00:49:37.578Z,1014.960144
2022-08-23T00:50:34.994Z,1014.932861
2022-08-23T00:51:52.194Z,1014.959167
2022-08-23T00:51:52.648Z,1014.959167
2022-08-23T00:51:53.178Z,1014.959167
2022-08-23T00:52:37.361Z,1014.974915
2022-08-23T00:53:38.211Z,1015.014587
2022-08-23T00:54:38.848Z,1015.022278
2022-08-23T00:56:05.536Z,1014.982971
2022-08-23T00:56:47.957Z,1014.912781
2022-08-23T00:57:52.759Z,1014.994446
2022-08-23T00:58:53.080Z,1015.02948
2022-08-23T01:00:48.975Z,1015.0495
2022-08-23T01:01:50.646Z,1015.033081
2022-08-23T01:02:47.895Z,1015.032532
2022-08-23T01:03:47.847Z,1015.05542
2022-08-23T01:03:57.125Z,1015.05542
2022-08-23T01:04:04.494Z,1015.05542
2022-08-23T01:05:44.476Z,1015.036987
2022-08-23T01:06:48.811Z,1015.110352
2022-08-23T01:07:44.359Z,1015.039734
2022-08-23T01:08:45.119Z,1015.047058
2022-08-23T01:09:41.337Z,1015.062927
2022-08-23T01:10:41.665Z,1015.105896
2022-08-23T01:11:39.818Z,1015.042725
2022-08-23T01:12:41.626Z,1015.056885
2022-08-23T01:13:39.559Z,1015.126587
2022-08-23T01:14:38.776Z,1015.15741
2022-08-23T01:15:41.620Z,1015.079285
2022-08-23T01:16:41.714Z,1015.124939
2022-08-23T01:17:37.201Z,1015.085144
2022-08-23T01:18:40.741Z,1015.06134
2022-08-23T01:19:36.438Z,1015.177673
2022-08-23T01:21:36.438Z,1015.06012
2022-08-23T01:22:35.742Z,1015.098755
2022-08-23T01:23:31.088Z,1015.101807
2022-08-23T01:25:06.052Z,1015.12146
2022-08-23T01:25:07.110Z,1015.12146
2022-08-23T01:26:29.494Z,1015.118896
2022-08-23T01:27:32.202Z,1015.204895
2022-08-23T01:28:27.718Z,1015.123718
2022-08-23T01:29:27.378Z,1015.100098
2022-08-23T01:31:29.812Z,1015.180847
2022-08-23T01:32:25.014Z,1015.234802
2022-08-23T01:33:25.070Z,1015.17157
2022-08-23T01:34:24.687Z,1015.174683
2022-08-23T01:35:28.791Z,1015.201843
2022-08-23T01:36:22.626Z,1015.228577
2022-08-23T01:37:25.099Z,1015.22406
2022-08-23T01:38:25.917Z,1015.181091
2022-08-23T01:39:23.967Z,1015.188049
2022-08-23T01:41:24.004Z,1015.191589
2022-08-23T01:42:23.723Z,1015.15564
2022-08-23T01:43:21.113Z,1015.186279
2022-08-23T01:44:27.432Z,1015.166443
2022-08-23T01:46:14.835Z,1015.233643
2022-08-23T01:46:59.191Z,1015.218872
2022-08-23T01:47:58.195Z,1015.125916
2022-08-23T01:49:04.520Z,1015.148743
2022-08-23T01:49:08.416Z,1015.148743
2022-08-23T01:50:03.333Z,1015.129211
2022-08-23T01:51:01.915Z,1015.132813
2022-08-23T01:52:07.269Z,1015.159119
2022-08-23T01:53:03.794Z,1015.18988
2022-08-23T01:54:05.798Z,1015.235291
2022-08-23T01:56:05.566Z,1015.133606
2022-08-23T01:57:01.868Z,1015.160278
2022-08-23T01:58:04.432Z,1015.167175
2022-08-23T01:59:13.801Z,1015.182129
2022-08-23T02:00:15.600Z,1015.159363
2022-08-23T02:01:17.424Z,1015.161987
2022-08-23T02:02:18.680Z,1015.196045
2022-08-23T02:03:15.815Z,1015.199341
2022-08-23T02:04:16.106Z,1015.183594
2022-08-23T02:05:13.695Z,1015.242432
2022-08-23T02:05:19.146Z,1015.242432
2022-08-23T02:06:17.555Z,1015.234619
2022-08-23T02:07:14.708Z,1015.226563
2022-08-23T02:08:15.672Z,1015.262573
2022-08-23T02:09:19.505Z,1015.290955
2022-08-23T02:11:24.251Z,1015.275085
2022-08-23T02:12:20.120Z,1015.282104
2022-08-23T02:13:21.134Z,1015.242432
2022-08-23T02:14:22.540Z,1015.230103
2022-08-23T02:15:16.831Z,1015.245972
2022-08-23T02:16:26.299Z,1015.241577
2022-08-23T02:17:20.214Z,1015.225708
2022-08-23T02:18:20.850Z,1015.237183
2022-08-23T02:19:20.460Z,1015.259827
2022-08-23T02:21:24.493Z,1015.169312
2022-08-23T02:24:45.363Z,1015.226074
2022-08-23T02:26:05.150Z,1015.253113
2022-08-23T02:27:05.382Z,1015.155762
2022-08-23T02:28:03.464Z,1015.228455
2022-08-23T02:29:03.458Z,1015.250671
2022-08-23T02:29:59.739Z,1015.210693
2022-08-23T02:31:01.384Z,1015.237366
2022-08-23T02:31:55.725Z,1015.263855
2022-08-23T02:32:55.007Z,1015.2005
2022-08-23T02:33:52.909Z,1015.210815
2022-08-23T02:35:05.251Z,1015.249451
2022-08-23T02:35:05.619Z,1015.249451
2022-08-23T02:36:50.904Z,1015.261719
2022-08-23T02:37:52.802Z,1015.292297
2022-08-23T02:38:48.121Z,1015.187195
2022-08-23T02:39:53.679Z,1015.25293
2022-08-23T02:40:46.202Z,1015.202576
2022-08-23T02:41:44.310Z,1015.162537
2022-08-23T02:42:40.804Z,1015.212463
2022-08-23T02:43:41.249Z,1015.300903
2022-08-23T02:44:37.967Z,1015.289001
2022-08-23T02:46:32.018Z,1015.24353
2022-08-23T02:47:31.061Z,1015.273804
2022-08-23T02:48:25.383Z,1015.312195
2022-08-23T02:49:27.410Z,1015.264771
2022-08-23T02:51:21.161Z,1015.291931
2022-08-23T02:52:12.927Z,1015.288086
2022-08-23T02:53:16.035Z,1015.353821
2022-08-23T02:54:10.568Z,1015.329956
2022-08-23T02:55:13.179Z,1015.318542
2022-08-23T02:56:07.457Z,1015.338013
2022-08-23T02:56:21.184Z,1015.338013
2022-08-23T02:56:21.461Z,1015.338013
2022-08-23T02:57:15.362Z,1015.35022
2022-08-23T02:58:11.017Z,1015.291931
2022-08-23T02:59:13.280Z,1015.300415
2022-08-23T03:01:10.316Z,1015.230164
2022-08-23T03:02:09.249Z,1015.252991
2022-08-23T03:03:09.627Z,1015.25647
2022-08-23T03:04:03.903Z,1015.224854
2022-08-23T03:06:24.817Z,1015.236206
2022-08-23T03:06:24.952Z,1015.236206
2022-08-23T03:06:25.512Z,1015.236206
2022-08-23T03:07:03.877Z,1015.279236
2022-08-23T03:07:59.276Z,1015.299561
2022-08-23T03:08:58.057Z,1015.187195
2022-08-23T03:09:53.880Z,1015.288086
2022-08-23T03:10:53.300Z,1015.260925
2022-08-23T03:11:48.856Z,1015.229309
2022-08-23T03:12:47.848Z,1015.216858
2022-08-23T03:13:46.075Z,1015.336914
2022-08-23T03:14:42.964Z,1015.231689
2022-08-23T03:16:31.237Z,1015.233765
2022-08-23T03:17:20.683Z,1015.312317
2022-08-23T03:18:17.249Z,1015.251038
2022-08-23T03:19:12.490Z,1015.220886
2022-08-23T03:21:07.638Z,1015.235229
2022-08-23T03:22:06.884Z,1015.212036
2022-08-23T03:23:10.314Z,1015.212585
2022-08-23T03:24:10.577Z,1015.252441
2022-08-23T03:25:09.069Z,1015.248535
2022-08-23T03:26:12.786Z,1015.198059
2022-08-23T03:27:08.556Z,1015.294128
2022-08-23T03:28:09.443Z,1015.1922
2022-08-23T03:29:05.590Z,1015.187744
2022-08-23T03:31:05.306Z,1015.23468
2022-08-23T03:32:07.170Z,1015.264771
2022-08-23T03:33:03.927Z,1015.292053
2022-08-23T03:34:20.997Z,1015.246094
2022-08-23T03:36:12.442Z,1015.246094
2022-08-23T03:37:09.869Z,1015.237854
2022-08-23T03:38:09.497Z,1015.218933
2022-08-23T03:39:04.284Z,1015.230164
2022-08-23T03:40:03.619Z,1015.273315
2022-08-23T03:41:03.602Z,1015.250427
2022-08-23T03:42:06.705Z,1015.269287
2022-08-23T03:43:03.061Z,1015.362305
2022-08-23T03:44:05.972Z,1015.35083
2022-08-23T03:45:02.229Z,1015.382507
2022-08-23T03:46:56.866Z,1015.383972
2022-08-23T03:47:59.659Z,1015.41864
2022-08-23T03:48:59.597Z,1015.364197
2022-08-23T03:49:55.216Z,1015.434509
2022-08-23T03:51:00.932Z,1015.395752
2022-08-23T03:51:56.262Z,1015.415588
2022-08-23T03:52:54.893Z,1015.477356
2022-08-23T03:53:50.149Z,1015.395752
2022-08-23T03:54:49.288Z,1015.442749
2022-08-23T03:55:56.919Z,1015.442749
2022-08-23T03:56:55.714Z,1015.438354
2022-08-23T03:57:54.985Z,1015.429993
2022-08-23T03:58:59.465Z,1015.538086
2022-08-23T04:00:47.336Z,1015.524353
2022-08-23T04:01:29.059Z,1015.590637
2022-08-23T04:02:30.660Z,1015.51001
2022-08-23T04:03:31.505Z,1015.52124
2022-08-23T04:04:29.567Z,1015.532715
2022-08-23T04:06:33.905Z,1015.557373
2022-08-23T04:07:31.808Z,1015.59259
2022-08-23T04:08:34.088Z,1015.565369
2022-08-23T04:09:30.947Z,1015.557373
2022-08-23T04:10:33.274Z,1015.619812
2022-08-23T04:11:29.712Z,1015.615295
2022-08-23T04:12:34.483Z,1015.623108
2022-08-23T04:13:32.933Z,1015.576782
2022-08-23T04:14:34.029Z,1015.576782
2022-08-23T04:15:33.548Z,1015.584595
2022-08-23T04:16:35.826Z,1015.595947
2022-08-23T04:17:40.684Z,1015.572388
2022-08-23T04:18:37.759Z,1015.580078
2022-08-23T04:19:43.073Z,1015.604004
2022-08-23T04:21:38.323Z,1015.694458
2022-08-23T04:22:35.921Z,1015.710266
2022-08-23T04:23:38.863Z,1015.636414
2022-08-23T04:24:34.649Z,1015.722534
2022-08-23T04:25:39.853Z,1015.692017
2022-08-23T04:26:36.900Z,1015.664795
2022-08-23T04:27:41.156Z,1015.664795
2022-08-23T04:28:37.516Z,1015.680115
2022-08-23T04:29:39.370Z,1015.726868
2022-08-23T04:31:43.843Z,1015.749634
2022-08-23T04:32:47.095Z,1015.636414
2022-08-23T04:33:43.923Z,1015.745178
2022-08-23T04:34:45.799Z,1015.756592
2022-08-23T04:34:51.477Z,1015.756592
2022-08-23T04:36:51.722Z,1015.714661
2022-08-23T04:36:52.537Z,1015.714661
2022-08-23T04:36:55.343Z,1015.714661
2022-08-23T04:37:44.072Z,1015.812012
2022-08-23T04:38:50.321Z,1015.835693
2022-08-23T04:39:51.770Z,1015.835693
2022-08-23T04:40:51.215Z,1015.824463
2022-08-23T04:41:57.945Z,1015.769104
2022-08-23T04:42:58.808Z,1015.84259
2022-08-23T04:43:59.082Z,1015.911926
2022-08-23T04:45:49.261Z,1015.84021
2022-08-23T04:46:31.783Z,1015.864807
2022-08-23T04:47:29.777Z,1015.795227
2022-08-23T04:48:29.653Z,1015.792114
2022-08-23T04:49:25.046Z,1015.804138
2022-08-23T04:51:31.237Z,1015.873718
2022-08-23T04:52:33.377Z,1015.848999
2022-08-23T04:53:29.633Z,1015.879211
2022-08-23T04:54:30.263Z,1015.86731
2022-08-23T04:56:26.654Z,1015.944458
2022-08-23T04:57:26.557Z,1015.917297
2022-08-23T04:58:22.330Z,1015.936646
2022-08-23T04:59:26.450Z,1015.917297
2022-08-23T05:00:19.887Z,1015.924744
2022-08-23T05:01:19.221Z,1015.913391
2022-08-23T05:02:13.944Z,1015.933105
2022-08-23T05:03:14.332Z,1015.944458
2022-08-23T05:04:12.347Z,1015.960266
2022-08-23T05:06:06.065Z,1015.98053
2022-08-23T05:07:06.792Z,1016.008362
2022-08-23T05:08:02.378Z,1016.060242
2022-08-23T05:09:07.737Z,1016.103333
2022-08-23T05:10:01.014Z,1016.056641
2022-08-23T05:11:58.510Z,1016.076843
2022-08-23T05:12:59.006Z,1016.065552
2022-08-23T05:13:56.893Z,1016.085083
2022-08-23T05:14:59.591Z,1016.076965
2022-08-23T05:16:54.298Z,1016.065552
2022-08-23T05:17:49.438Z,1016.140137
2022-08-23T05:18:50.373Z,1016.074463
2022-08-23T05:19:47.132Z,1016.121094
2022-08-23T05:20:47.358Z,1016.074463
2022-08-23T05:21:40.377Z,1016.008667
2022-08-23T05:22:41.556Z,1016.047241
2022-08-23T05:23:40.264Z,1016.093811
2022-08-23T05:24:37.590Z,1016.06665
2022-08-23T05:26:32.266Z,1016.093811
2022-08-23T05:27:34.386Z,1015.985046
2022-08-23T05:29:01.351Z,1016.141357
2022-08-23T05:29:43.238Z,1016.16156
2022-08-23T05:30:47.891Z,1016.101013
2022-08-23T05:30:56.594Z,1016.101013
2022-08-23T05:30:57.280Z,1016.101013
2022-08-23T05:31:43.091Z,1016.074463
2022-08-23T05:32:38.390Z,1016.098999
2022-08-23T05:33:38.609Z,1016.12384
2022-08-23T05:34:35.680Z,1016.050171
2022-08-23T05:36:36.175Z,1016.178162
2022-08-23T05:37:36.374Z,1016.186218
2022-08-23T05:38:31.572Z,1016.213379
2022-08-23T05:39:36.448Z,1016.205383
2022-08-23T05:41:37.668Z,1016.237305
2022-08-23T05:41:38.026Z,1016.237305
2022-08-23T05:42:29.551Z,1016.22229
2022-08-23T05:43:25.369Z,1016.258423
2022-08-23T05:44:25.687Z,1016.238586
2022-08-23T05:45:23.776Z,1016.27417
2022-08-23T05:46:26.624Z,1016.324707
2022-08-23T05:46:28.453Z,1016.324707
2022-08-23T05:47:24.863Z,1016.278564
2022-08-23T05:48:18.770Z,1016.236145
2022-08-23T05:49:16.896Z,1016.280518
2022-08-23T05:51:14.099Z,1016.199341
2022-08-23T05:52:18.420Z,1016.226624
2022-08-23T05:53:12.845Z,1016.234924
2022-08-23T05:54:15.367Z,1016.262207
2022-08-23T05:55:08.600Z,1016.304565
2022-08-23T05:56:08.448Z,1016.285278
2022-08-23T05:57:04.628Z,1016.273987
2022-08-23T05:58:04.340Z,1016.30127
2022-08-23T05:59:00.969Z,1016.336121
2022-08-23T06:00:00.788Z,1016.402039
2022-08-23T06:01:02.130Z,1016.297668
2022-08-23T06:01:54.863Z,1016.441711
2022-08-23T06:02:58.273Z,1016.313293
2022-08-23T06:03:50.973Z,1016.415283
2022-08-23T06:04:57.429Z,1016.403809
2022-08-23T06:06:47.873Z,1016.444336
2022-08-23T06:07:48.219Z,1016.440369
2022-08-23T06:08:43.683Z,1016.456177
2022-08-23T06:09:44.029Z,1016.401733
2022-08-23T06:10:42.362Z,1016.428955
2022-08-23T06:11:37.804Z,1016.453125
2022-08-23T06:12:38.068Z,1016.484497
2022-08-23T06:13:35.041Z,1016.484497
2022-08-23T06:14:34.261Z,1016.546631
2022-08-23T06:16:28.461Z,1016.465088
2022-08-23T06:17:32.066Z,1016.488831
2022-08-23T06:18:28.657Z,1016.477417
2022-08-23T06:20:07.873Z,1016.512207
2022-08-23T06:22:19.904Z,1016.388367
2022-08-23T06:22:58.541Z,1016.437317
2022-08-23T06:23:58.198Z,1016.379211
2022-08-23T06:24:53.554Z,1016.417236
2022-08-23T06:25:53.629Z,1016.380981
2022-08-23T06:26:47.174Z,1016.415344
2022-08-23T06:27:47.793Z,1016.438171
2022-08-23T06:28:51.063Z,1016.402588
2022-08-23T06:28:51.086Z,1016.402588
2022-08-23T06:29:42.773Z,1016.375366
2022-08-23T06:31:37.423Z,1016.461121
2022-08-23T06:32:31.288Z,1016.468628
2022-08-23T06:33:30.318Z,1016.393921
2022-08-23T06:34:24.711Z,1016.393921
2022-08-23T06:35:38.011Z,1016.401489
2022-08-23T06:35:39.298Z,1016.401489
2022-08-23T06:36:20.841Z,1016.386414
2022-08-23T06:37:14.580Z,1016.441406
2022-08-23T06:38:13.098Z,1016.402588
2022-08-23T06:39:07.085Z,1016.44574
2022-08-23T06:40:08.489Z,1016.504272
2022-08-23T06:42:13.259Z,1016.438171
2022-08-23T06:42:28.007Z,1016.438171
2022-08-23T06:42:58.757Z,1016.469788
2022-08-23T06:43:52.805Z,1016.513306
2022-08-23T06:44:51.350Z,1016.533386
2022-08-23T06:46:46.810Z,1016.549255
2022-08-23T06:47:38.551Z,1016.510498
2022-08-23T06:48:36.371Z,1016.553528
2022-08-23T06:49:33.499Z,1016.549927
2022-08-23T06:49:39.701Z,1016.522644
2022-08-23T06:50:38.614Z,1016.511108
2022-08-23T06:51:34.473Z,1016.562927
2022-08-23T06:52:33.382Z,1016.528564
2022-08-23T06:53:27.751Z,1016.571655
2022-08-23T06:54:26.703Z,1016.494141
2022-08-23T06:56:19.852Z,1016.627686
2022-08-23T06:57:15.043Z,1016.589355
2022-08-23T06:58:16.701Z,1016.554871
2022-08-23T06:59:08.479Z,1016.566956
2022-08-23T07:00:09.854Z,1016.555481
2022-08-23T07:01:01.730Z,1016.595154
2022-08-23T07:02:03.242Z,1016.59137
2022-08-23T07:02:57.568Z,1016.604065
2022-08-23T07:03:57.703Z,1016.581177
2022-08-23T07:04:54.475Z,1016.627869
2022-08-23T07:06:47.810Z,1016.645081
2022-08-23T07:07:44.315Z,1016.583252
2022-08-23T07:08:41.364Z,1016.630737
2022-08-23T07:09:36.713Z,1016.63092
2022-08-23T07:11:30.107Z,1016.581238
2022-08-23T07:12:32.005Z,1016.687622
2022-08-23T07:13:24.297Z,1016.680359
2022-08-23T07:14:26.111Z,1016.704712
2022-08-23T07:15:18.093Z,1016.755371
2022-08-23T07:17:12.952Z,1016.737183
2022-08-23T07:18:14.634Z,1016.68335
2022-08-23T07:19:07.249Z,1016.688293
2022-08-23T07:20:09.365Z,1016.735779
2022-08-23T07:21:04.174Z,1016.782959
2022-08-23T07:22:01.370Z,1016.764221
2022-08-23T07:22:57.606Z,1016.764465
2022-08-23T07:23:55.952Z,1016.738342
2022-08-23T07:24:50.755Z,1016.754089
2022-08-23T07:25:50.487Z,1016.793457
2022-08-23T07:26:45.880Z,1016.719971
2022-08-23T07:27:45.490Z,1016.75946
2022-08-23T07:28:40.778Z,1016.689758
2022-08-23T07:29:40.520Z,1016.736511
2022-08-23T07:31:35.475Z,1016.757629
2022-08-23T07:32:30.388Z,1016.723145
2022-08-23T07:33:33.570Z,1016.750549
2022-08-23T07:35:12.749Z,1016.759521
2022-08-23T07:36:12.194Z,1016.764526
2022-08-23T07:37:11.449Z,1016.70636
2022-08-23T07:37:15.730Z,1016.70636
2022-08-23T07:38:07.646Z,1016.796875
2022-08-23T07:39:03.105Z,1016.868225
2022-08-23T07:40:39.248Z,1016.87677
2022-08-23T07:42:54.623Z,1016.836487
2022-08-23T07:43:35.987Z,1016.829102
2022-08-23T07:44:36.598Z,1016.907471
2022-08-23T07:46:34.398Z,1016.876404
2022-08-23T07:47:36.392Z,1016.895935
2022-08-23T07:48:53.096Z,1016.803284
2022-08-23T07:48:53.441Z,1016.803284
2022-08-23T07:48:53.892Z,1016.803284
2022-08-23T07:49:32.956Z,1016.925232
2022-08-23T07:50:34.619Z,1016.901672
2022-08-23T07:51:31.646Z,1016.906494
2022-08-23T07:52:33.113Z,1016.926392
2022-08-23T07:53:37.661Z,1016.930725
2022-08-23T07:53:37.752Z,1016.930725
2022-08-23T07:54:31.818Z,1016.837341
2022-08-23T07:56:32.931Z,1016.955261
2022-08-23T07:57:27.226Z,1016.936218
2022-08-23T07:58:27.124Z,1016.936218
2022-08-23T07:59:32.738Z,1016.968262
2022-08-23T07:59:34.739Z,1016.968262
2022-08-23T08:01:27.709Z,1016.921814
2022-08-23T08:02:24.557Z,1016.934021
2022-08-23T08:03:26.595Z,1016.91864
2022-08-23T08:04:23.730Z,1016.91449
2022-08-23T08:05:25.246Z,1016.926575
2022-08-23T08:06:24.868Z,1016.954224
2022-08-23T08:07:21.817Z,1016.896606
2022-08-23T08:08:23.565Z,1016.971313
2022-08-23T08:09:20.373Z,1016.978821
2022-08-23T08:10:22.371Z,1016.971313
2022-08-23T08:11:20.530Z,1016.908569
2022-08-23T08:12:21.024Z,1016.955933
2022-08-23T08:13:18.071Z,1016.932739
2022-08-23T08:14:19.828Z,1016.901733
2022-08-23T08:15:17.055Z,1016.917419
2022-08-23T08:17:15.610Z,1016.988281
2022-08-23T08:18:25.637Z,1016.914551
2022-08-23T08:19:19.750Z,1016.817322
2022-08-23T08:20:16.312Z,1016.899597
2022-08-23T08:22:16.370Z,1016.833862
2022-08-23T08:23:17.920Z,1016.857544
2022-08-23T08:24:16.292Z,1016.85791
2022-08-23T08:25:19.666Z,1016.803162
2022-08-23T08:27:16.623Z,1016.908936
2022-08-23T08:28:16.443Z,1016.913025
2022-08-23T08:29:13.776Z,1016.909668
2022-08-23T08:30:16.017Z,1016.824097
2022-08-23T08:31:14.244Z,1016.90625
2022-08-23T08:32:18.307Z,1016.887146
2022-08-23T08:33:13.260Z,1016.875916
2022-08-23T08:34:18.697Z,1016.880188
2022-08-23T08:35:16.224Z,1016.943237
2022-08-23T08:37:19.074Z,1016.900574
2022-08-23T08:38:14.313Z,1016.865723
2022-08-23T08:39:16.508Z,1016.865967
2022-08-23T08:40:14.570Z,1016.956177
2022-08-23T08:42:16.410Z,1016.980225
2022-08-23T08:43:14.573Z,1016.878601
2022-08-23T08:44:18.964Z,1016.90625
2022-08-23T08:45:14.035Z,1016.921936
2022-08-23T08:46:16.586Z,1016.878662
2022-08-23T08:47:14.052Z,1016.961731
2022-08-23T08:48:19.071Z,1016.938416
2022-08-23T08:49:14.382Z,1016.930847
2022-08-23T08:50:19.556Z,1016.934814
2022-08-23T08:51:44.000Z,1016.899414
2022-08-23T08:52:24.500Z,1016.954529
2022-08-23T08:53:23.028Z,1016.915649
2022-08-23T08:54:23.992Z,1016.896667
2022-08-23T08:55:19.958Z,1016.927673
2022-08-23T08:57:16.869Z,1016.92395
2022-08-23T08:58:17.844Z,1016.939697
2022-08-23T08:59:13.894Z,1016.877258
2022-08-23T09:00:14.921Z,1016.956177
2022-08-23T09:02:31.946Z,1016.908875
2022-08-23T09:02:33.154Z,1016.908875
2022-08-23T09:03:11.535Z,1016.960205
2022-08-23T09:04:08.093Z,1016.894104
2022-08-23T09:05:08.982Z,1016.948975
2022-08-23T09:06:05.625Z,1017.003906
2022-08-23T09:07:06.789Z,1017.042847
2022-08-23T09:08:03.363Z,1016.984619
2022-08-23T09:09:04.103Z,1017.050964
2022-08-23T09:10:01.177Z,1016.906128
2022-08-23T09:11:58.119Z,1016.953491
2022-08-23T09:12:56.577Z,1016.968872
2022-08-23T09:14:00.085Z,1016.866821
2022-08-23T09:14:53.634Z,1016.941589
2022-08-23T09:16:51.599Z,1016.933777
2022-08-23T09:17:54.479Z,1016.937927
2022-08-23T09:18:48.172Z,1016.996338
2022-08-23T09:19:51.626Z,1016.898865
2022-08-23T09:21:43.962Z,1016.906311
2022-08-23T09:22:44.781Z,1016.863159
2022-08-23T09:23:40.982Z,1016.92627
2022-08-23T09:24:44.258Z,1016.949463
2022-08-23T09:25:38.556Z,1016.937927
2022-08-23T09:26:41.382Z,1016.976929
2022-08-23T09:27:35.069Z,1016.961853
2022-08-23T09:28:33.564Z,1016.906799
2022-08-23T09:29:34.606Z,1016.914246
2022-08-23T09:31:08.300Z,1016.934509
2022-08-23T09:33:26.914Z,1016.935669
2022-08-23T09:34:08.857Z,1016.98291
2022-08-23T09:35:11.528Z,1016.955444
2022-08-23T09:37:10.568Z,1016.947327
2022-08-23T09:38:07.921Z,1016.868958
2022-08-23T09:39:09.678Z,1016.986511
2022-08-23T09:40:06.483Z,1016.959045
2022-08-23T09:41:08.223Z,1016.903931
2022-08-23T09:42:05.492Z,1016.935608
2022-08-23T09:43:07.713Z,1016.974792
2022-08-23T09:44:05.093Z,1016.993896
2022-08-23T09:45:06.429Z,1016.92334
2022-08-23T09:46:03.758Z,1016.856873
2022-08-23T09:47:04.883Z,1016.935303
2022-08-23T09:48:02.257Z,1016.895996
2022-08-23T09:49:04.036Z,1016.903748
2022-08-23T09:50:00.532Z,1016.899719
2022-08-23T09:51:58.859Z,1017.024902
2022-08-23T09:53:00.354Z,1016.970032
2022-08-23T09:53:57.081Z,1016.926697
2022-08-23T09:54:58.449Z,1016.899353
2022-08-23T09:55:57.836Z,1016.930603
2022-08-23T09:56:54.997Z,1016.832703
2022-08-23T09:57:55.805Z,1016.90332
2022-08-23T09:58:52.229Z,1016.883667
2022-08-23T09:59:54.203Z,1016.899719
2022-08-23T10:01:52.336Z,1016.923523
2022-08-23T10:02:48.912Z,1016.915527
2022-08-23T10:03:50.265Z,1016.915527
2022-08-23T10:04:46.685Z,1016.943054
2022-08-23T10:06:45.025Z,1016.852173
2022-08-23T10:07:49.021Z,1016.93512
2022-08-23T10:08:43.527Z,1016.86853
2022-08-23T10:09:47.201Z,1016.934937
2022-08-23T10:11:42.851Z,1016.884338
2022-08-23T10:12:39.460Z,1016.891846
2022-08-23T10:13:41.380Z,1016.876648
2022-08-23T10:15:05.650Z,1016.833374
2022-08-23T10:16:44.425Z,1016.868896
2022-08-23T10:17:44.917Z,1016.892151
2022-08-23T10:18:41.014Z,1016.837158
2022-08-23T10:19:40.944Z,1016.857239
2022-08-23T10:20:37.048Z,1016.904114
2022-08-23T10:21:36.999Z,1016.904114
2022-08-23T10:22:32.810Z,1016.849182
2022-08-23T10:23:35.934Z,1016.849182
2022-08-23T10:24:30.268Z,1016.813354
2022-08-23T10:25:27.859Z,1016.856873
2022-08-23T10:27:24.101Z,1016.880371
2022-08-23T10:28:26.230Z,1016.832947
2022-08-23T10:29:19.120Z,1016.887878
2022-08-23T10:30:17.114Z,1016.860291
2022-08-23T10:31:14.758Z,1016.848938
2022-08-23T10:32:13.094Z,1016.805664
2022-08-23T10:33:10.716Z,1016.888
2022-08-23T10:33:18.698Z,1016.888
2022-08-23T10:34:11.338Z,1016.829346
2022-08-23T10:35:07.124Z,1016.86853
2022-08-23T10:37:04.801Z,1016.87207
2022-08-23T10:38:00.912Z,1016.817139
2022-08-23T10:39:03.312Z,1016.864563
2022-08-23T10:40:00.322Z,1016.899536
2022-08-23T10:40:04.144Z,1016.899536
2022-08-23T10:43:49.664Z,1016.763123
2022-08-23T10:44:11.407Z,1016.845886
2022-08-23T10:45:13.277Z,1016.841797
2022-08-23T10:47:11.355Z,1016.77887
2022-08-23T10:48:08.498Z,1016.841492
2022-08-23T10:49:09.498Z,1016.809998
2022-08-23T10:50:06.300Z,1016.739563
2022-08-23T10:52:07.065Z,1016.755005
2022-08-23T10:53:04.181Z,1016.770874
2022-08-23T10:54:05.133Z,1016.814026
2022-08-23T10:55:01.823Z,1016.739441
2022-08-23T10:56:03.158Z,1016.794312
2022-08-23T10:56:59.482Z,1016.778564
2022-08-23T10:58:03.445Z,1016.727905
2022-08-23T10:58:57.770Z,1016.75531
2022-08-23T10:59:58.759Z,1016.778442
2022-08-23T11:00:55.991Z,1016.751404
2022-08-23T11:01:57.347Z,1016.735535
2022-08-23T11:02:53.804Z,1016.7547
2022-08-23T11:03:57.427Z,1016.743103
2022-08-23T11:04:51.748Z,1016.743103
2022-08-23T11:05:52.774Z,1016.723267
2022-08-23T11:06:49.117Z,1016.656677
2022-08-23T11:07:51.396Z,1016.660645
2022-08-23T11:08:48.235Z,1016.645447
2022-08-23T11:09:52.156Z,1016.688171
2022-08-23T11:10:56.101Z,1016.712158
2022-08-23T11:10:56.118Z,1016.712158
2022-08-23T11:10:57.137Z,1016.712158
2022-08-23T11:12:47.593Z,1016.680725
2022-08-23T11:13:44.267Z,1016.633667
2022-08-23T11:14:48.778Z,1016.625732
2022-08-23T11:15:44.605Z,1016.688416
2022-08-23T11:16:44.175Z,1016.551025
2022-08-23T11:17:40.682Z,1016.65332
2022-08-23T11:18:44.942Z,1016.672668
2022-08-23T11:19:38.931Z,1016.637512
2022-08-23T11:20:42.812Z,1016.641235
2022-08-23T11:22:37.990Z,1016.551086
2022-08-23T11:23:34.492Z,1016.617676
2022-08-23T11:24:35.571Z,1016.62146
2022-08-23T11:25:34.662Z,1016.672913
2022-08-23T11:26:38.424Z,1016.657349
2022-08-23T11:27:32.931Z,1016.621521
2022-08-23T11:28:36.790Z,1016.629822
2022-08-23T11:30:14.369Z,1016.598022